Time;durP1;ratioP1;P1;durP2;ratioP2;P2;SDS_P1;SDS_P2;PMS_P1;PMS_P2;Temp;Humidity;BMP_temperature;BMP_pressure;BME280_temperature;BME280_humidity;BME280_pressure;Samples;Min_cycle;Max_cycle;Signal;HPM_P1;HPM_P2
2023/05/04 00:01:17;;;;;;;7.15;2.90;;;;;;;12.73;29.70;101841.31;4987536;28;20714;-68
2023/05/04 00:03:45;;;;;;;4.63;2.70;;;;;;;12.70;29.50;101838.84;5002795;28;20053;-68
2023/05/04 00:06:14;;;;;;;5.03;3.17;;;;;;;12.67;29.71;101839.09;5005182;28;20137;-68
2023/05/04 00:08:42;;;;;;;4.00;2.80;;;;;;;12.66;29.52;101830.97;5004364;28;20539;-68
2023/05/04 00:11:10;;;;;;;5.90;2.90;;;;;;;12.62;29.59;101827.59;5003222;28;20124;-68
2023/05/04 00:13:38;;;;;;;4.40;2.70;;;;;;;12.59;29.69;101825.06;5004614;28;20093;-68
2023/05/04 00:16:07;;;;;;;5.25;3.00;;;;;;;12.57;29.68;101821.56;4986919;28;20057;-69
2023/05/04 00:18:37;;;;;;;4.45;2.88;;;;;;;12.53;29.89;101822.81;5006515;28;20042;-69
2023/05/04 00:21:05;;;;;;;4.57;2.85;;;;;;;12.49;30.05;101819.44;5003264;28;20077;-68
2023/05/04 00:23:34;;;;;;;5.25;3.13;;;;;;;12.47;29.67;101817.81;5006354;28;20382;-68
2023/05/04 00:26:02;;;;;;;6.18;2.90;;;;;;;12.45;29.98;101814.34;5004326;28;20497;-69
2023/05/04 00:28:29;;;;;;;6.65;3.17;;;;;;;12.42;30.13;101817.31;5002314;28;20073;-68
2023/05/04 00:30:57;;;;;;;4.88;3.30;;;;;;;12.39;30.32;101818.41;5005214;28;20056;-68
2023/05/04 00:33:26;;;;;;;5.07;3.15;;;;;;;12.38;30.30;101824.03;4990844;28;20096;-69
2023/05/04 00:35:54;;;;;;;4.93;3.15;;;;;;;12.33;29.98;101824.41;4987684;28;20041;-69
2023/05/04 00:38:22;;;;;;;5.72;3.28;;;;;;;12.30;30.06;101819.16;5006585;28;20056;-69
2023/05/04 00:40:50;;;;;;;5.30;3.40;;;;;;;12.28;30.27;101817.56;5004804;28;20049;-69
2023/05/04 00:43:18;;;;;;;5.22;3.20;;;;;;;12.25;30.32;101813.16;5022928;28;20496;-69
2023/05/04 00:45:46;;;;;;;8.80;3.90;;;;;;;12.22;30.78;101807.03;5006046;28;20064;-69
2023/05/04 00:48:14;;;;;;;6.40;3.95;;;;;;;12.17;30.54;101804.66;5006171;28;20520;-69
2023/05/04 00:50:43;;;;;;;6.25;3.70;;;;;;;12.16;30.60;101802.03;5005057;28;20056;-69
2023/05/04 00:53:12;;;;;;;5.30;3.28;;;;;;;12.10;30.82;101798.81;5022149;28;20060;-69
2023/05/04 00:55:40;;;;;;;5.63;3.40;;;;;;;12.08;30.93;101803.53;5007031;28;20061;-69
2023/05/04 00:58:08;;;;;;;5.00;3.50;;;;;;;12.05;30.72;101795.53;5006157;28;20060;-69
2023/05/04 01:00:37;;;;;;;5.25;3.20;;;;;;;12.04;30.92;101796.56;5003171;28;20041;-68
2023/05/04 01:03:05;;;;;;;6.78;3.80;;;;;;;12.01;31.02;101784.94;5006243;28;20042;-68
2023/05/04 01:05:38;;;;;;;4.70;3.63;;;;;;;11.99;31.30;101785.06;4989865;28;20116;-68
2023/05/04 01:08:11;;;;;;;5.20;3.50;;;;;;;11.98;31.39;101787.91;5003119;28;20069;-68
2023/05/04 01:10:47;;;;;;;5.82;3.70;;;;;;;11.97;31.40;101783.41;5017505;28;20054;-69
2023/05/04 01:13:16;;;;;;;5.82;3.25;;;;;;;11.92;30.92;101780.16;5004772;28;20125;-68
2023/05/04 01:15:44;;;;;;;4.63;3.40;;;;;;;11.89;31.23;101775.78;4996838;28;20065;-68
2023/05/04 01:18:12;;;;;;;5.28;3.17;;;;;;;11.87;31.21;101780.53;5003211;28;20053;-68
2023/05/04 01:20:40;;;;;;;4.47;2.80;;;;;;;11.85;30.85;101777.03;4987377;28;20091;-69
2023/05/04 01:23:10;;;;;;;4.78;3.10;;;;;;;11.85;31.13;101781.66;5007302;28;20042;-68
2023/05/04 01:25:45;;;;;;;6.95;3.35;;;;;;;11.83;31.59;101773.53;5004198;28;20395;-69
2023/05/04 01:28:18;;;;;;;5.70;3.33;;;;;;;11.80;31.15;101772.91;5002547;28;20054;-69
2023/05/04 01:30:50;;;;;;;5.28;3.30;;;;;;;11.78;31.86;101763.94;5004926;28;21229;-69
2023/05/04 01:33:19;;;;;;;5.20;3.42;;;;;;;11.73;31.37;101759.66;5004688;28;20049;-69
2023/05/04 01:35:48;;;;;;;6.10;3.38;;;;;;;11.71;31.53;101753.44;5005517;28;20042;-69
2023/05/04 01:38:17;;;;;;;4.85;3.40;;;;;;;11.70;31.79;101762.66;5006383;28;20050;-69
2023/05/04 01:40:45;;;;;;;4.53;3.20;;;;;;;11.66;31.47;101758.41;5003596;28;20129;-68
2023/05/04 01:43:13;;;;;;;5.22;3.17;;;;;;;11.64;31.34;101760.38;5012874;28;20093;-68
2023/05/04 01:45:41;;;;;;;5.95;3.15;;;;;;;11.62;31.57;101758.78;5003197;28;20037;-69
2023/05/04 01:48:09;;;;;;;6.45;3.50;;;;;;;11.60;31.88;101760.72;4999671;28;20073;-68
2023/05/04 01:50:37;;;;;;;5.35;3.40;;;;;;;11.58;31.74;101769.06;4990383;28;20498;-68
2023/05/04 01:53:05;;;;;;;5.25;3.15;;;;;;;11.56;31.62;101768.28;5000724;28;20394;-68
2023/05/04 01:55:34;;;;;;;6.18;3.40;;;;;;;11.56;31.71;101771.03;5001147;28;20523;-68
2023/05/04 01:58:02;;;;;;;6.47;3.38;;;;;;;11.53;31.45;101767.69;4997897;28;20112;-68
2023/05/04 02:00:30;;;;;;;5.85;3.33;;;;;;;11.52;31.88;101768.66;4985146;28;20152;-68
2023/05/04 02:03:00;;;;;;;5.43;3.63;;;;;;;11.49;31.75;101771.63;4986388;28;20137;-67
2023/05/04 02:05:28;;;;;;;5.57;3.42;;;;;;;11.49;31.71;101769.75;4987083;28;20982;-68
2023/05/04 02:07:56;;;;;;;6.40;3.10;;;;;;;11.47;31.69;101769.00;5003064;28;20053;-68
2023/05/04 02:10:24;;;;;;;4.90;3.40;;;;;;;11.45;31.77;101768.28;5000942;28;20056;-68
2023/05/04 02:12:53;;;;;;;5.47;3.20;;;;;;;11.45;31.96;101762.78;5000729;28;20528;-68
2023/05/04 02:15:21;;;;;;;5.38;3.30;;;;;;;11.43;32.21;101766.63;4984227;28;20050;-68
2023/05/04 02:17:48;;;;;;;7.10;3.40;;;;;;;11.41;32.28;101765.88;5014171;28;20106;-68
2023/05/04 02:20:17;;;;;;;5.47;3.13;;;;;;;11.40;32.13;101761.38;4988047;28;20045;-68
2023/05/04 02:22:45;;;;;;;6.68;3.85;;;;;;;11.37;31.84;101767.97;5001055;28;20128;-68
2023/05/04 02:25:13;;;;;;;6.78;3.70;;;;;;;11.35;32.21;101761.75;5005085;28;20030;-68
2023/05/04 02:27:41;;;;;;;5.45;3.50;;;;;;;11.31;32.47;101758.34;5002133;28;20122;-68
2023/05/04 02:30:12;;;;;;;6.25;3.67;;;;;;;11.32;32.46;101765.56;5001932;28;20048;-69
2023/05/04 02:32:40;;;;;;;6.35;3.28;;;;;;;11.27;32.34;101755.97;5003148;28;20421;-68
2023/05/04 02:35:08;;;;;;;4.88;3.50;;;;;;;11.24;32.77;101759.81;5001509;28;20037;-68
2023/05/04 02:37:36;;;;;;;5.60;3.53;;;;;;;11.21;32.51;101757.31;4983538;28;20584;-68
2023/05/04 02:40:05;;;;;;;5.13;3.55;;;;;;;11.19;32.46;101750.19;4985352;28;20046;-68
2023/05/04 02:42:33;;;;;;;6.10;3.70;;;;;;;11.15;32.88;101756.88;5027814;23;20083;-82
2023/05/04 02:45:01;;;;;;;5.28;3.65;;;;;;;11.10;32.55;101749.03;4993016;28;20030;-84
2023/05/04 02:47:30;;;;;;;6.45;3.95;;;;;;;11.08;32.99;101742.78;5009419;28;20057;-83
2023/05/04 02:50:00;;;;;;;5.20;3.38;;;;;;;11.04;32.87;101738.56;4996498;28;20137;-82
2023/05/04 02:52:28;;;;;;;4.93;3.20;;;;;;;11.01;32.70;101740.63;5006990;28;20141;-84
2023/05/04 02:54:56;;;;;;;5.22;3.13;;;;;;;10.98;32.75;101741.72;5000508;28;20072;-83
2023/05/04 02:57:24;;;;;;;5.88;3.60;;;;;;;10.97;32.68;101737.28;4992392;28;20054;-83
2023/05/04 02:59:52;;;;;;;5.78;3.58;;;;;;;10.95;32.91;101733.75;4971732;28;20173;-82
2023/05/04 03:02:20;;;;;;;5.80;3.60;;;;;;;10.94;33.18;101749.31;4976418;28;20132;-84
2023/05/04 03:04:50;;;;;;;5.40;3.30;;;;;;;10.94;33.12;101742.97;4976597;28;20078;-83
2023/05/04 03:07:18;;;;;;;5.55;3.45;;;;;;;10.90;33.05;101742.31;4991777;28;20062;-83
2023/05/04 03:09:46;;;;;;;4.78;3.58;;;;;;;10.89;32.91;101739.72;4974646;28;20046;-83
2023/05/04 03:12:30;;;;;;;5.53;3.35;;;;;;;10.86;33.16;101743.53;4988828;28;20069;-84
2023/05/04 03:14:59;;;;;;;5.80;3.47;;;;;;;10.85;32.96;101750.00;4988570;28;20086;-83
2023/05/04 03:17:26;;;;;;;5.35;3.28;;;;;;;10.86;33.02;101750.88;4976365;28;20112;-83
2023/05/04 03:19:57;;;;;;;4.63;3.35;;;;;;;10.86;32.98;101749.03;5001782;28;20038;-84
2023/05/04 03:22:26;;;;;;;4.88;3.40;;;;;;;10.82;32.86;101744.75;4981947;28;20042;-84
2023/05/04 03:24:54;;;;;;;6.35;3.67;;;;;;;10.80;33.12;101741.28;4986207;28;20239;-84
2023/05/04 03:27:22;;;;;;;6.15;3.95;;;;;;;10.79;33.61;101739.53;4993136;28;20050;-84
2023/05/04 03:29:50;;;;;;;5.72;3.50;;;;;;;10.78;33.47;101728.66;4996231;28;20065;-84
2023/05/04 03:32:19;;;;;;;5.47;3.67;;;;;;;10.74;33.46;101727.13;4999082;28;20058;-84
2023/05/04 03:34:47;;;;;;;5.40;3.75;;;;;;;10.72;33.54;101716.31;4987330;28;20038;-85
2023/05/04 03:37:17;;;;;;;6.65;3.53;;;;;;;10.72;33.17;101729.13;5003387;28;20064;-84
2023/05/04 03:39:45;;;;;;;6.70;3.70;;;;;;;10.66;33.60;101719.50;4996990;28;20549;-85
2023/05/04 03:42:13;;;;;;;5.18;3.40;;;;;;;10.67;33.37;101725.84;4982403;28;20088;-84
2023/05/04 03:44:41;;;;;;;5.40;3.45;;;;;;;10.65;33.38;101722.38;5003475;28;20068;-84
2023/05/04 03:47:09;;;;;;;6.28;3.67;;;;;;;10.64;33.56;101728.84;5007526;28;20046;-83
2023/05/04 03:49:37;;;;;;;5.93;3.63;;;;;;;10.60;33.70;101715.38;4995214;28;20057;-84
2023/05/04 03:52:06;;;;;;;6.78;4.00;;;;;;;10.56;34.05;101715.72;4982480;28;20058;-84
2023/05/04 03:54:35;;;;;;;6.32;3.78;;;;;;;10.55;33.78;101714.84;5007401;28;20236;-84
2023/05/04 03:57:04;;;;;;;5.22;4.00;;;;;;;10.49;34.05;101714.38;4985392;28;20054;-84
2023/05/04 03:59:33;;;;;;;5.68;3.50;;;;;;;10.45;33.79;101716.47;4984399;28;20042;-84
2023/05/04 04:02:04;;;;;;;6.20;3.63;;;;;;;10.41;33.76;101720.41;4998501;28;20085;-84
2023/05/04 04:04:32;;;;;;;6.88;4.40;;;;;;;10.37;34.07;101712.53;5006355;28;20047;-84
2023/05/04 04:07:00;;;;;;;6.25;4.15;;;;;;;10.35;34.02;101709.03;5002865;28;20425;-84
2023/05/04 04:09:30;;;;;;;5.80;4.07;;;;;;;10.33;34.12;101711.88;4999281;28;20061;-83
2023/05/04 04:11:59;;;;;;;6.15;3.80;;;;;;;10.33;34.48;101706.41;4979493;28;20062;-80
2023/05/04 04:14:27;;;;;;;6.03;3.67;;;;;;;10.31;34.14;101711.16;4974375;28;20068;-81
2023/05/04 04:16:55;;;;;;;5.25;3.42;;;;;;;10.30;34.46;101714.88;4975713;28;20183;-81
2023/05/04 04:19:23;;;;;;;6.15;3.78;;;;;;;10.31;34.07;101713.88;4987214;28;20042;-80
2023/05/04 04:21:51;;;;;;;4.72;3.38;;;;;;;10.31;34.12;101711.16;4972556;28;20054;-82
2023/05/04 04:24:19;;;;;;;7.10;3.78;;;;;;;10.31;34.16;101715.75;4979697;28;20050;-83
2023/05/04 04:26:47;;;;;;;6.97;3.90;;;;;;;10.31;34.38;101705.66;4990381;28;20100;-83
2023/05/04 04:29:16;;;;;;;5.43;3.65;;;;;;;10.32;34.27;101710.13;4991128;28;20121;-80
2023/05/04 04:31:44;;;;;;;5.65;3.70;;;;;;;10.30;33.95;101717.59;4987058;28;20061;-81
2023/05/04 04:34:12;;;;;;;5.68;3.83;;;;;;;10.32;34.38;101712.03;4970755;28;20089;-81
2023/05/04 04:36:40;;;;;;;6.43;3.55;;;;;;;10.32;34.07;101717.50;4996814;28;20057;-81
2023/05/04 04:39:08;;;;;;;6.10;3.80;;;;;;;10.32;34.65;101715.59;4980782;28;20054;-81
2023/05/04 04:41:36;;;;;;;6.15;3.67;;;;;;;10.33;34.28;101719.22;4972945;28;20050;-80
2023/05/04 04:44:04;;;;;;;6.72;3.70;;;;;;;10.33;34.58;101713.75;4978306;28;20169;-78
2023/05/04 04:46:33;;;;;;;7.07;4.10;;;;;;;10.33;34.67;101716.47;5001863;28;20090;-80
2023/05/04 04:49:01;;;;;;;6.40;3.50;;;;;;;10.33;34.74;101717.34;4986854;28;20178;-80
2023/05/04 04:51:29;;;;;;;6.95;3.90;;;;;;;10.34;34.45;101719.09;5005568;28;20038;-81
2023/05/04 04:53:57;;;;;;;5.43;3.55;;;;;;;10.33;34.63;101717.34;4979947;28;20323;-81
2023/05/04 04:56:25;;;;;;;6.25;4.10;;;;;;;10.34;34.38;101727.31;4977330;28;20050;-81
2023/05/04 04:58:53;;;;;;;10.05;4.32;;;;;;;10.36;34.48;101724.47;4977922;28;20066;-81
2023/05/04 05:01:21;;;;;;;6.53;4.03;;;;;;;10.37;34.87;101723.50;4995263;28;20051;-81
2023/05/04 05:03:51;;;;;;;7.25;3.92;;;;;;;10.39;34.78;101725.13;4989494;28;20073;-80
2023/05/04 05:06:19;;;;;;;6.95;4.10;;;;;;;10.38;34.83;101719.78;4977329;28;20434;-81
2023/05/04 05:08:47;;;;;;;6.32;4.13;;;;;;;10.38;35.05;101726.13;4979210;28;20073;-82
2023/05/04 05:11:15;;;;;;;6.00;4.10;;;;;;;10.40;34.98;101720.53;4976497;28;20065;-83
2023/05/04 05:13:43;;;;;;;7.78;4.40;;;;;;;10.41;35.03;101717.66;5008500;28;20042;-83
2023/05/04 05:16:11;;;;;;;5.57;3.80;;;;;;;10.44;35.20;101720.19;4980470;28;20046;-83
2023/05/04 05:18:39;;;;;;;7.95;4.40;;;;;;;10.45;35.50;101719.22;4986360;28;20460;-82
2023/05/04 05:21:09;;;;;;;5.80;3.97;;;;;;;10.49;35.59;101715.25;4992082;28;20058;-83
2023/05/04 05:23:37;;;;;;;7.43;4.40;;;;;;;10.50;35.54;101713.38;4979238;28;20505;-83
2023/05/04 05:26:05;;;;;;;8.38;4.05;;;;;;;10.56;35.67;101710.25;4990468;28;20038;-83
2023/05/04 05:28:33;;;;;;;6.82;4.03;;;;;;;10.64;35.87;101713.28;5015961;28;20989;-83
2023/05/04 05:31:00;;;;;;;6.07;3.63;;;;;;;10.73;36.17;101715.31;5015733;28;20043;-82
2023/05/04 05:33:29;;;;;;;7.10;3.90;;;;;;;10.85;35.94;101711.66;5012807;28;20449;-82
2023/05/04 05:35:56;;;;;;;5.45;3.28;;;;;;;10.98;36.13;101711.59;4986044;28;20118;-82
2023/05/04 05:38:26;;;;;;;5.78;3.53;;;;;;;11.14;35.90;101712.19;4989077;28;20139;-82
2023/05/04 05:40:54;;;;;;;5.82;3.70;;;;;;;11.27;36.26;101706.66;5002918;28;20043;-84
2023/05/04 05:43:22;;;;;;;5.57;3.45;;;;;;;11.44;35.97;101703.47;4998474;28;20049;-83
2023/05/04 05:45:50;;;;;;;5.78;3.00;;;;;;;11.58;35.81;101699.63;5010616;28;20085;-83
2023/05/04 05:48:18;;;;;;;6.43;3.00;;;;;;;11.75;35.29;101699.22;4991262;28;20042;-82
2023/05/04 05:50:46;;;;;;;4.47;2.80;;;;;;;11.89;35.12;101709.94;4995960;28;20049;-82
2023/05/04 05:53:14;;;;;;;8.18;3.15;;;;;;;11.99;34.80;101702.75;4984446;28;20412;-83
2023/05/04 05:55:43;;;;;;;5.93;2.70;;;;;;;12.15;34.81;101704.25;4987820;28;20066;-84
2023/05/04 05:58:11;;;;;;;4.43;2.80;;;;;;;12.24;34.21;101701.63;5002307;28;20042;-85
2023/05/04 06:00:39;;;;;;;5.68;3.05;;;;;;;12.33;34.04;101698.16;4983083;28;20038;-86
2023/05/04 06:03:09;;;;;;;5.43;2.55;;;;;;;12.41;34.35;101694.75;4991777;28;20050;-86
2023/05/04 06:05:37;;;;;;;5.10;2.53;;;;;;;12.50;34.14;101700.38;4996915;28;20051;-86
2023/05/04 06:08:05;;;;;;;5.78;3.05;;;;;;;12.59;33.96;101696.00;5007894;28;20114;-85
2023/05/04 06:10:33;;;;;;;6.30;2.95;;;;;;;12.64;33.78;101693.75;4985661;28;20197;-85
2023/05/04 06:13:03;;;;;;;5.15;2.63;;;;;;;12.74;33.31;101688.38;4978760;28;20042;-85
2023/05/04 06:15:31;;;;;;;6.05;2.85;;;;;;;12.79;33.78;101689.72;4982218;28;20042;-86
2023/05/04 06:18:01;;;;;;;5.95;2.67;;;;;;;12.89;33.17;101695.31;4990417;28;20096;-86
2023/05/04 06:20:29;;;;;;;4.55;2.30;;;;;;;12.95;33.54;101685.72;4975568;28;20101;-86
2023/05/04 06:22:58;;;;;;;4.03;2.50;;;;;;;13.04;33.35;101687.66;4972607;28;20126;-86
2023/05/04 06:25:26;;;;;;;4.88;2.65;;;;;;;13.12;33.70;101687.88;4984097;28;20145;-86
2023/05/04 06:27:54;;;;;;;3.90;2.60;;;;;;;13.21;33.03;101692.59;4975263;28;20387;-86
2023/05/04 06:30:26;;;;;;;6.00;2.60;;;;;;;13.29;33.17;101683.69;4978402;28;20509;-85
2023/05/04 06:32:55;;;;;;;4.25;2.20;;;;;;;13.39;33.17;101687.38;4970203;28;20077;-85
2023/05/04 06:35:23;;;;;;;5.43;2.72;;;;;;;13.48;32.89;101681.09;4993907;28;20046;-85
2023/05/04 06:37:51;;;;;;;3.25;2.22;;;;;;;13.57;32.51;101683.09;4976413;28;20524;-83
2023/05/04 06:40:19;;;;;;;3.20;2.10;;;;;;;13.68;33.03;101679.41;4977051;28;20042;-86
2023/05/04 06:42:47;;;;;;;3.88;2.15;;;;;;;13.78;32.69;101678.44;4976100;28;20079;-85
2023/05/04 06:45:15;;;;;;;6.20;2.50;;;;;;;13.89;32.47;101683.00;4980793;28;20034;-86
2023/05/04 06:47:45;;;;;;;3.30;2.35;;;;;;;14.05;32.77;101675.13;4996531;28;20070;-85
2023/05/04 06:50:14;;;;;;;3.83;2.42;;;;;;;14.17;32.65;101675.91;4995495;28;20038;-84
2023/05/04 06:52:45;;;;;;;4.40;2.33;;;;;;;14.31;32.04;101676.41;4997322;28;20133;-84
2023/05/04 06:55:13;;;;;;;3.95;2.15;;;;;;;14.43;32.39;101668.91;4999108;28;20464;-84
2023/05/04 06:57:48;;;;;;;2.97;1.95;;;;;;;14.60;32.20;101670.16;4982542;28;20054;-83
2023/05/04 07:00:21;;;;;;;4.00;2.30;;;;;;;14.75;32.35;101672.38;4991083;28;20039;-83
2023/05/04 07:02:52;;;;;;;4.05;2.20;;;;;;;14.94;31.71;101673.38;4995930;28;20077;-82
2023/05/04 07:05:21;;;;;;;3.88;2.20;;;;;;;15.07;31.71;101671.25;4999032;28;20062;-82
2023/05/04 07:07:52;;;;;;;4.95;2.15;;;;;;;15.23;31.95;101674.28;4975648;28;20042;-83
2023/05/04 07:10:20;;;;;;;5.30;2.22;;;;;;;15.37;31.68;101670.25;4977056;28;20046;-82
2023/05/04 07:12:49;;;;;;;3.75;2.08;;;;;;;15.52;31.17;101672.41;4971156;28;20066;-83
2023/05/04 07:15:17;;;;;;;4.00;2.17;;;;;;;15.63;31.53;101665.88;4959794;28;20031;-81
2023/05/04 07:17:46;;;;;;;4.50;2.35;;;;;;;15.78;30.79;101663.50;4958306;28;20613;-82
2023/05/04 07:20:16;;;;;;;4.60;2.22;;;;;;;15.92;30.70;101665.78;4982467;28;20046;-84
2023/05/04 07:22:44;;;;;;;3.28;2.05;;;;;;;16.02;30.91;101663.00;4957476;28;20050;-84
2023/05/04 07:29:41;;;;;;;4.22;2.03;;;;;;;16.27;29.45;101654.94;4816735;29;20058;-81
2023/05/04 07:32:10;;;;;;;3.90;2.10;;;;;;;16.44;30.25;101650.50;4869457;29;20055;-83
2023/05/04 07:35:13;;;;;;;3.50;1.88;;;;;;;16.56;30.21;101642.88;4973087;28;20199;-80
2023/05/04 07:37:43;;;;;;;3.45;2.00;;;;;;;16.69;29.83;101645.25;4960703;28;20133;-79
2023/05/04 07:40:13;;;;;;;3.05;2.00;;;;;;;16.79;29.30;101646.06;4953505;28;20042;-82
2023/05/04 07:42:41;;;;;;;3.97;2.10;;;;;;;16.85;29.03;101639.91;4980935;28;20121;-82
2023/05/04 07:45:10;;;;;;;3.03;2.03;;;;;;;16.94;29.09;101638.97;4955156;28;20502;-81
2023/05/04 07:47:44;;;;;;;3.33;1.90;;;;;;;17.02;28.78;101637.19;4966354;28;20612;-83
2023/05/04 07:50:13;;;;;;;3.42;2.13;;;;;;;17.08;29.24;101635.69;4975484;28;20055;-83
2023/05/04 07:52:45;;;;;;;3.35;2.35;;;;;;;17.19;28.67;101641.00;4954168;28;20078;-84
2023/05/04 07:55:13;;;;;;;2.65;1.80;;;;;;;17.22;28.81;101626.84;4958531;28;20046;-84
2023/05/04 07:57:41;;;;;;;2.92;2.22;;;;;;;17.29;28.70;101640.91;4953887;28;20057;-86
2023/05/04 08:00:10;;;;;;;3.40;2.20;;;;;;;17.36;28.49;101637.34;4972033;28;20039;-85
2023/05/04 08:02:41;;;;;;;4.03;2.30;;;;;;;17.37;27.98;101635.44;4965649;28;20047;-83
2023/05/04 08:05:10;;;;;;;3.67;2.15;;;;;;;17.46;27.78;101633.63;4975398;28;20103;-82
2023/05/04 08:07:38;;;;;;;3.67;2.28;;;;;;;17.46;27.80;101634.47;4958690;28;20046;-82
2023/05/04 08:10:37;;;;;;;4.43;2.20;;;;;;;17.53;27.57;101630.03;4957598;28;20130;-84
2023/05/04 08:13:06;;;;;;;3.50;2.00;;;;;;;17.57;27.89;101625.03;4979954;28;20079;-84
2023/05/04 08:15:34;;;;;;;3.45;2.20;;;;;;;17.61;28.14;101621.78;4962428;28;20070;-82
2023/05/04 08:18:05;;;;;;;3.10;2.03;;;;;;;17.68;28.21;101622.00;4960687;28;20050;-80
2023/05/04 08:20:32;;;;;;;3.75;2.17;;;;;;;17.75;27.86;101620.34;4969283;28;20046;-83
2023/05/04 08:23:02;;;;;;;4.85;2.60;;;;;;;17.80;28.00;101617.97;4979899;28;20224;-84
2023/05/04 08:25:30;;;;;;;3.92;2.55;;;;;;;17.90;27.65;101606.75;4970415;28;20665;-83
2023/05/04 08:27:58;;;;;;;3.67;2.30;;;;;;;17.96;27.67;101604.22;4987564;28;20137;-84
2023/05/04 08:30:28;;;;;;;3.85;2.90;;;;;;;18.06;27.80;101607.72;4952809;28;20047;-84
2023/05/04 08:32:56;;;;;;;4.05;2.40;;;;;;;18.12;27.36;101596.00;4952293;28;20155;-83
2023/05/04 08:35:26;;;;;;;3.70;2.40;;;;;;;18.19;27.40;101607.28;4972413;28;20058;-85
2023/05/04 08:37:54;;;;;;;3.60;2.40;;;;;;;18.25;27.84;101597.44;4957998;28;20095;-84
2023/05/04 08:40:22;;;;;;;3.38;2.28;;;;;;;18.32;27.56;101607.69;4956494;28;20215;-82
2023/05/04 08:42:51;;;;;;;4.47;2.60;;;;;;;18.42;27.89;101599.22;4967500;23;20476;-65
2023/05/04 08:45:19;;;;;;;3.47;2.35;;;;;;;18.47;27.57;101606.00;4962821;28;20240;-61
2023/05/04 08:47:48;;;;;;;4.57;3.00;;;;;;;18.54;27.49;101608.16;4968069;28;20105;-64
2023/05/04 08:50:16;;;;;;;3.85;2.75;;;;;;;18.59;27.01;101597.41;4964790;28;20101;-65
2023/05/04 08:52:46;;;;;;;4.07;2.60;;;;;;;18.64;27.42;101597.75;4964546;28;20050;-64
2023/05/04 08:55:15;;;;;;;4.80;3.15;;;;;;;18.65;26.72;101594.81;4962754;28;20122;-63
2023/05/04 08:57:44;;;;;;;4.85;2.58;;;;;;;18.71;27.06;101591.41;4963883;28;20046;-64
2023/05/04 09:00:16;;;;;;;4.57;2.65;;;;;;;18.77;26.71;101589.84;4963497;28;20118;-64
2023/05/04 09:02:45;;;;;;;4.00;2.90;;;;;;;18.77;27.16;101589.84;4967393;28;20297;-63
2023/05/04 09:05:15;;;;;;;4.70;3.00;;;;;;;18.86;26.96;101591.59;4968386;28;20046;-63
2023/05/04 09:07:43;;;;;;;5.28;3.03;;;;;;;18.89;27.06;101592.09;4967159;28;20137;-64
2023/05/04 09:10:11;;;;;;;4.15;2.70;;;;;;;18.97;27.33;101593.13;4963913;28;20054;-64
2023/05/04 09:12:39;;;;;;;4.10;2.78;;;;;;;19.05;27.34;101594.00;4964366;28;20054;-65
2023/05/04 09:15:17;;;;;;;4.32;2.83;;;;;;;19.16;27.00;101587.25;4962493;28;20887;-65
2023/05/04 09:17:55;;;;;;;4.00;2.63;;;;;;;19.22;26.53;101578.28;4959652;28;20078;-64
2023/05/04 09:20:26;;;;;;;3.95;2.88;;;;;;;19.31;27.15;101584.69;4980958;28;20053;-64
2023/05/04 09:23:01;;;;;;;5.63;3.17;;;;;;;19.42;26.43;101578.78;4981597;28;20414;-64
2023/05/04 09:25:29;;;;;;;4.65;2.90;;;;;;;19.44;26.70;101574.81;4985158;28;20517;-64
2023/05/04 09:27:57;;;;;;;5.53;3.08;;;;;;;19.51;26.58;101578.63;4973927;28;20585;-63
2023/05/04 09:30:26;;;;;;;4.70;2.75;;;;;;;19.58;26.76;101568.53;4981720;28;20053;-64
2023/05/04 09:32:54;;;;;;;5.35;3.20;;;;;;;19.62;26.28;101561.56;4983282;28;20054;-64
2023/05/04 09:35:30;;;;;;;4.80;3.15;;;;;;;19.73;26.17;101565.03;4986187;28;20073;-64
2023/05/04 09:38:01;;;;;;;4.30;3.05;;;;;;;19.75;26.46;101557.38;4985005;28;20056;-64
2023/05/04 09:40:33;;;;;;;4.78;3.20;;;;;;;19.84;26.08;101546.06;4974774;28;20081;-64
2023/05/04 09:43:01;;;;;;;4.10;2.78;;;;;;;19.86;26.47;101545.91;4976295;28;20133;-63
2023/05/04 09:45:39;;;;;;;4.20;3.20;;;;;;;19.96;25.50;101549.34;4980303;28;20548;-64
2023/05/04 09:48:17;;;;;;;4.18;2.88;;;;;;;20.02;25.78;101551.44;4981319;28;20086;-63
2023/05/04 09:50:52;;;;;;;4.25;3.30;;;;;;;20.07;25.57;101531.44;4984448;28;20398;-63
2023/05/04 09:53:21;;;;;;;5.43;2.63;;;;;;;20.11;25.88;101539.25;4984347;28;20045;-65
2023/05/04 09:56:00;;;;;;;4.72;2.85;;;;;;;20.20;25.47;101535.34;4980651;28;20050;-63
2023/05/04 09:58:31;;;;;;;4.95;2.83;;;;;;;20.20;25.82;101515.06;4974830;28;20042;-64
2023/05/04 10:01:01;;;;;;;4.10;2.58;;;;;;;20.30;25.35;101532.34;4971863;28;20069;-68
2023/05/04 10:03:30;;;;;;;4.50;3.28;;;;;;;20.35;25.34;101516.88;4981956;28;20065;-69
2023/05/04 10:05:59;;;;;;;4.43;3.17;;;;;;;20.45;25.36;101518.56;4985147;28;20054;-68
2023/05/04 10:08:28;;;;;;;3.45;2.50;;;;;;;20.48;25.28;101516.25;4976708;28;20387;-70
2023/05/04 10:10:57;;;;;;;3.88;2.58;;;;;;;20.56;25.45;101516.22;4980221;28;20069;-70
2023/05/04 10:13:25;;;;;;;4.57;2.90;;;;;;;20.59;25.19;101526.16;4986655;28;20046;-71
2023/05/04 10:16:04;;;;;;;4.47;3.10;;;;;;;20.68;24.03;101516.69;4985920;28;20050;-71
2023/05/04 10:18:46;;;;;;;4.40;3.00;;;;;;;20.69;24.29;101508.16;4984886;28;20077;-71
2023/05/04 10:21:27;;;;;;;3.90;2.95;;;;;;;20.75;24.56;101504.63;4983126;28;20050;-71
2023/05/04 10:24:28;;;;;;;4.78;2.85;;;;;;;20.73;24.17;101506.72;4985954;28;20046;-71
2023/05/04 10:27:02;;;;;;;4.20;3.22;;;;;;;20.81;24.32;101488.25;4985064;28;20062;-71
2023/05/04 10:29:32;;;;;;;4.60;2.85;;;;;;;20.84;24.37;101485.97;4984357;28;20034;-71
2023/05/04 10:32:00;;;;;;;5.05;3.00;;;;;;;20.86;24.16;101486.63;4969546;28;20509;-71
2023/05/04 10:34:30;;;;;;;4.53;2.92;;;;;;;20.91;24.27;101492.50;4988067;28;20157;-71
2023/05/04 10:37:01;;;;;;;4.30;2.80;;;;;;;20.96;23.73;101491.94;4972665;28;20053;-71
2023/05/04 10:39:30;;;;;;;3.85;2.60;;;;;;;20.99;24.45;101492.44;4978736;28;20101;-71
2023/05/04 10:42:01;;;;;;;3.67;2.50;;;;;;;21.05;24.06;101483.31;4984824;28;20058;-71
2023/05/04 10:44:30;;;;;;;4.03;2.65;;;;;;;21.10;24.05;101482.78;4987437;28;20417;-71
2023/05/04 10:47:07;;;;;;;4.53;2.92;;;;;;;21.17;23.56;101469.84;4982463;28;20065;-71
2023/05/04 10:49:36;;;;;;;4.07;3.10;;;;;;;21.19;23.85;101475.22;4983832;28;20034;-69
2023/05/04 10:52:10;;;;;;;4.50;2.83;;;;;;;21.30;23.38;101469.19;4968700;28;20046;-69
2023/05/04 10:54:40;;;;;;;3.65;2.40;;;;;;;21.33;23.89;101466.03;4985155;28;20113;-68
2023/05/04 10:57:09;;;;;;;4.18;3.00;;;;;;;21.39;23.95;101452.22;4985564;28;20048;-68
2023/05/04 10:59:37;;;;;;;4.15;2.80;;;;;;;21.44;23.67;101451.63;4971088;28;20047;-69
2023/05/04 11:02:06;;;;;;;3.60;2.80;;;;;;;21.52;23.48;101445.97;4981527;28;20485;-69
2023/05/04 11:04:35;;;;;;;4.70;3.20;;;;;;;21.57;23.33;101426.78;4980522;28;20041;-69
2023/05/04 11:07:04;;;;;;;4.13;2.58;;;;;;;21.65;23.53;101431.38;4984893;28;20045;-72
2023/05/04 11:09:38;;;;;;;4.38;2.95;;;;;;;21.70;22.94;101437.22;4977580;28;20066;-73
2023/05/04 11:12:09;;;;;;;3.88;3.08;;;;;;;21.69;22.95;101438.28;4967364;28;20054;-73
2023/05/04 11:14:41;;;;;;;4.00;2.80;;;;;;;21.70;22.66;101429.72;4982197;28;20161;-73
2023/05/04 11:17:11;;;;;;;3.58;2.55;;;;;;;21.73;22.76;101421.00;4982121;28;20046;-75
2023/05/04 11:19:55;;;;;;;4.28;2.90;;;;;;;21.73;22.74;101417.34;4964760;28;20137;-74
2023/05/04 11:22:24;;;;;;;4.07;2.58;;;;;;;21.78;22.47;101412.91;4966636;28;20169;-73
2023/05/04 11:24:53;;;;;;;5.40;3.10;;;;;;;21.77;22.42;101422.31;4981750;28;20074;-73
2023/05/04 11:27:24;;;;;;;3.58;2.75;;;;;;;21.77;22.02;101400.03;4985070;28;20044;-69
2023/05/04 11:29:54;;;;;;;4.78;2.95;;;;;;;21.75;22.32;101410.53;4972513;28;20089;-69
2023/05/04 11:32:22;;;;;;;4.28;2.90;;;;;;;21.75;22.01;101384.59;4981101;28;20050;-69
2023/05/04 11:34:50;;;;;;;3.92;2.75;;;;;;;21.76;22.26;101398.31;4982945;28;20497;-69
2023/05/04 11:37:18;;;;;;;4.03;2.50;;;;;;;21.76;22.47;101384.41;4982252;28;20446;-69
2023/05/04 11:39:46;;;;;;;4.18;2.92;;;;;;;21.76;22.49;101387.19;4972070;28;20510;-69